createdAt,value
2019-02-24T00:03:57.348Z,102427.42
2019-02-24T00:08:01.531Z,102438.66
2019-02-24T00:12:05.751Z,102436.22
2019-02-24T00:16:09.967Z,102441.78
2019-02-24T00:20:14.201Z,102446.66
2019-02-24T00:24:18.435Z,102443.66
2019-02-24T00:28:22.657Z,102449.83
2019-02-24T00:32:26.882Z,102448.64
2019-02-24T00:36:31.126Z,102440.05
2019-02-24T00:40:35.308Z,102428.27
2019-02-24T00:44:39.537Z,102429.86
2019-02-24T00:48:43.814Z,102431.34
2019-02-24T00:52:48.010Z,102432.08
2019-02-24T00:56:52.236Z,102418.32
2019-02-24T01:00:56.467Z,102412.26
2019-02-24T01:05:01.047Z,102413.16
2019-02-24T01:09:06.435Z,102418.02
2019-02-24T01:13:10.623Z,102417.81
2019-02-24T01:17:14.858Z,102416.28
2019-02-24T01:21:19.095Z,102410.22
2019-02-24T01:25:23.360Z,102424.92
2019-02-24T01:29:27.643Z,102415.28
2019-02-24T01:33:31.866Z,102418.91
2019-02-24T01:37:36.168Z,102423.84
2019-02-24T01:41:40.406Z,102426.91
2019-02-24T01:45:44.651Z,102422.92
2019-02-24T01:49:48.910Z,102418.12
2019-02-24T01:53:53.149Z,102411.81
2019-02-24T01:57:57.377Z,102412.86
2019-02-24T02:02:01.710Z,102412.50
2019-02-24T02:06:05.991Z,102398.90
2019-02-24T02:10:10.196Z,102389.50
2019-02-24T02:14:14.899Z,102376.66
2019-02-24T02:18:19.170Z,102377.83
2019-02-24T02:22:23.437Z,102370.59
2019-02-24T02:26:27.699Z,102376.75
2019-02-24T02:30:31.971Z,102376.34
2019-02-24T02:34:36.287Z,102376.78
2019-02-24T02:38:40.576Z,102374.50
2019-02-24T02:42:44.805Z,102371.68
2019-02-24T02:46:49.175Z,102373.22
2019-02-24T02:50:53.511Z,102388.70
2019-02-24T02:54:57.871Z,102371.92
2019-02-24T02:59:02.507Z,102368.30
2019-02-24T03:03:06.940Z,102349.63
2019-02-24T03:07:16.100Z,102344.15
2019-02-24T03:11:20.434Z,102349.77
2019-02-24T03:15:25.228Z,102339.83
2019-02-24T03:19:29.525Z,102347.33
2019-02-24T03:23:33.835Z,102353.93
2019-02-24T03:27:38.478Z,102364.41
2019-02-24T03:31:42.835Z,102355.37
2019-02-24T03:35:47.148Z,102351.44
2019-02-24T03:39:51.779Z,102343.25
2019-02-24T03:43:56.115Z,102339.63
2019-02-24T03:48:00.506Z,102332.78
2019-02-24T03:52:04.908Z,102336.53
2019-02-24T03:56:09.464Z,102323.15
2019-02-24T04:00:13.784Z,102300.41
2019-02-24T04:04:18.039Z,102295.84
2019-02-24T04:08:22.472Z,102294.16
2019-02-24T04:12:26.852Z,102303.20
2019-02-24T04:16:31.278Z,102297.83
2019-02-24T04:20:35.629Z,102310.84
2019-02-24T04:24:39.932Z,102309.95
2019-02-24T04:28:44.292Z,102293.81
2019-02-24T04:32:48.729Z,102291.08
2019-02-24T04:36:53.113Z,102276.88
2019-02-24T04:40:57.603Z,102270.53
2019-02-24T04:45:02.425Z,102273.47
2019-02-24T04:49:07.103Z,102260.06
2019-02-24T04:53:11.556Z,102264.92
2019-02-24T04:57:15.961Z,102264.17
2019-02-24T05:01:20.259Z,102263.39
2019-02-24T05:05:24.628Z,102262.79
2019-02-24T05:09:29.016Z,102252.77
2019-02-24T05:13:33.760Z,102240.07
2019-02-24T05:17:38.834Z,102227.81
2019-02-24T05:21:43.608Z,102225.47
2019-02-24T05:25:47.964Z,102229.09
2019-02-24T05:29:52.211Z,102241.36
2019-02-24T05:33:56.564Z,102233.47
2019-02-24T05:38:01.036Z,102228.70
2019-02-24T05:42:05.408Z,102224.59
2019-02-24T05:46:09.730Z,102226.08
2019-02-24T05:50:14.128Z,102230.53
2019-02-24T05:54:18.503Z,102227.45
2019-02-24T05:58:23.055Z,102224.38
2019-02-24T06:02:27.556Z,102219.22
2019-02-24T06:06:32.794Z,102231.43
2019-02-24T06:10:37.202Z,102231.83
2019-02-24T06:14:41.524Z,102235.64
2019-02-24T06:18:45.760Z,102242.25
2019-02-24T06:22:50.152Z,102238.32
2019-02-24T06:26:54.721Z,102259.63
2019-02-24T06:30:59.211Z,102252.42
2019-02-24T06:35:03.798Z,102261.41
2019-02-24T06:39:09.119Z,102267.56
2019-02-24T06:43:13.457Z,102283.43
2019-02-24T06:47:17.760Z,102292.61
2019-02-24T06:51:22.461Z,102302.15
2019-02-24T06:55:26.778Z,102318.47
2019-02-24T06:59:31.087Z,102311.14
2019-02-24T07:03:35.489Z,102327.47
2019-02-24T07:07:40.251Z,102320.38
2019-02-24T07:11:44.610Z,102321.42
2019-02-24T07:15:49.948Z,102301.06
2019-02-24T07:19:54.945Z,102296.45
2019-02-24T07:23:59.234Z,102311.39
2019-02-24T07:28:03.546Z,102295.56
2019-02-24T07:32:07.737Z,102293.47
2019-02-24T07:36:11.979Z,102285.91
2019-02-24T07:40:16.258Z,102281.94
2019-02-24T07:44:20.503Z,102284.52
2019-02-24T07:48:25.148Z,102286.91
2019-02-24T07:52:29.768Z,102287.52
2019-02-24T07:56:34.000Z,102278.52
2019-02-24T08:00:38.198Z,102285.05
2019-02-24T08:04:42.456Z,102265.23
2019-02-24T08:08:46.692Z,102272.48
2019-02-24T08:12:50.946Z,102290.08
2019-02-24T08:16:55.176Z,102291.18
2019-02-24T08:20:59.499Z,102300.51
2019-02-24T08:25:03.722Z,102302.48
2019-02-24T08:29:07.943Z,102300.93
2019-02-24T08:33:12.162Z,102298.06
2019-02-24T08:37:16.365Z,102282.97
2019-02-24T08:41:20.943Z,102286.91
2019-02-24T08:45:25.167Z,102289.28
2019-02-24T08:49:29.403Z,102291.89
2019-02-24T08:53:33.603Z,102289.34
2019-02-24T08:57:37.880Z,102254.33
2019-02-24T09:01:42.128Z,102247.50
2019-02-24T09:05:46.336Z,102252.16
2019-02-24T09:09:50.517Z,102254.27
2019-02-24T09:13:54.763Z,102272.39
2019-02-24T09:17:58.971Z,102273.80
2019-02-24T09:22:03.186Z,102280.67
2019-02-24T09:26:07.389Z,102273.55
2019-02-24T09:30:12.126Z,102265.55
2019-02-24T09:34:16.309Z,102257.88
2019-02-24T09:38:20.587Z,102255.05
2019-02-24T09:42:24.750Z,102266.16
2019-02-24T09:46:28.960Z,102265.61
2019-02-24T09:50:33.179Z,102272.22
2019-02-24T09:54:37.401Z,102284.41
2019-02-24T09:58:41.622Z,102281.02
2019-02-24T10:02:45.849Z,102280.98
2019-02-24T10:06:50.074Z,102287.69
2019-02-24T10:10:54.384Z,102288.97
2019-02-24T10:14:58.648Z,102286.43
2019-02-24T10:19:02.883Z,102285.11
2019-02-24T10:23:07.139Z,102290.56
2019-02-24T10:27:11.378Z,102282.47
2019-02-24T10:31:19.813Z,102272.72
2019-02-24T10:35:21.546Z,102267.22
2019-02-24T10:39:29.643Z,102267.29
2019-02-24T10:43:31.706Z,102266.05
2019-02-24T10:47:35.948Z,102244.67
2019-02-24T10:51:40.204Z,102237.30
2019-02-24T10:55:44.437Z,102236.04
2019-02-24T10:59:48.614Z,102233.28
2019-02-24T11:03:52.832Z,102222.52
2019-02-24T11:07:57.061Z,102221.70
2019-02-24T11:12:01.315Z,102220.92
2019-02-24T11:16:05.621Z,102225.03
2019-02-24T11:20:10.762Z,102228.72
2019-02-24T11:24:14.980Z,102221.13
2019-02-24T11:28:19.180Z,102210.44
2019-02-24T11:32:23.406Z,102208.28
2019-02-24T11:36:27.658Z,102213.14
2019-02-24T11:40:31.838Z,102228.74
2019-02-24T11:44:36.097Z,102214.39
2019-02-24T11:48:40.305Z,102207.11
2019-02-24T11:52:44.529Z,102201.62
2019-02-24T11:56:48.852Z,102204.46
2019-02-24T12:00:53.584Z,102198.45
2019-02-24T12:04:57.876Z,102177.39
2019-02-24T12:09:05.241Z,102169.06
2019-02-24T12:13:08.277Z,102157.30
2019-02-24T12:17:12.511Z,102166.12
2019-02-24T12:21:16.687Z,102160.37
2019-02-24T12:25:20.901Z,102144.84
2019-02-24T12:29:25.129Z,102131.77
2019-02-24T12:33:29.350Z,102150.85
2019-02-24T12:37:33.580Z,102157.66
2019-02-24T12:41:37.770Z,102151.56
2019-02-24T12:45:42.131Z,102145.41
2019-02-24T12:49:46.373Z,102160.91
2019-02-24T12:53:50.659Z,102154.11
2019-02-24T12:57:55.265Z,102143.70
2019-02-24T13:02:05.588Z,102152.33
2019-02-24T13:06:06.444Z,102153.34
2019-02-24T13:10:12.536Z,102147.17
2019-02-24T13:14:16.794Z,102140.96
2019-02-24T13:18:21.022Z,102141.19
2019-02-24T13:22:25.343Z,102143.72
2019-02-24T13:26:29.536Z,102128.11
2019-02-24T13:30:33.818Z,102122.89
2019-02-24T13:34:38.052Z,102126.28
2019-02-24T13:38:42.279Z,102133.98
2019-02-24T13:42:48.687Z,102132.56
2019-02-24T13:46:53.244Z,102123.97
2019-02-24T13:50:57.481Z,102114.87
2019-02-24T13:55:01.799Z,102111.45
2019-02-24T13:59:06.161Z,102111.48
2019-02-24T14:03:10.406Z,102108.92
2019-02-24T14:07:14.589Z,102113.64
2019-02-24T14:11:18.822Z,102105.64
2019-02-24T14:15:23.052Z,102105.57
2019-02-24T14:19:27.317Z,102111.14
2019-02-24T14:23:31.551Z,102104.84
2019-02-24T14:27:35.777Z,102112.77
2019-02-24T14:31:40.240Z,102110.65
2019-02-24T14:35:44.436Z,102114.99
2019-02-24T14:39:48.663Z,102113.09
2019-02-24T14:43:52.892Z,102113.11
2019-02-24T14:47:57.122Z,102108.12
2019-02-24T14:52:01.357Z,102093.08
2019-02-24T14:56:05.603Z,102101.91
2019-02-24T15:00:11.992Z,102106.70
2019-02-24T15:04:16.175Z,102106.92
2019-02-24T15:08:20.417Z,102103.72
2019-02-24T15:12:24.630Z,102104.14
2019-02-24T15:16:28.907Z,102107.92
2019-02-24T15:20:33.342Z,102109.16
2019-02-24T15:24:37.585Z,102118.37
2019-02-24T15:28:41.840Z,102117.73
2019-02-24T15:32:51.773Z,102117.95
2019-02-24T15:36:51.950Z,102123.58
2019-02-24T15:40:56.193Z,102122.28
2019-02-24T15:45:00.520Z,102114.56
2019-02-24T15:49:04.952Z,102120.78
2019-02-24T15:53:09.165Z,102121.88
2019-02-24T15:57:13.813Z,102117.25
2019-02-24T16:01:18.031Z,102106.03
2019-02-24T16:05:22.275Z,102097.81
2019-02-24T16:09:26.469Z,102099.62
2019-02-24T16:13:30.688Z,102082.48
2019-02-24T16:17:34.924Z,102085.97
2019-02-24T16:21:39.147Z,102087.90
2019-02-24T16:25:43.400Z,102075.19
2019-02-24T16:29:48.653Z,102078.70
2019-02-24T16:33:52.895Z,102075.17
2019-02-24T16:37:57.110Z,102083.11
2019-02-24T16:42:01.789Z,102082.91
2019-02-24T16:46:05.993Z,102095.27
2019-02-24T16:50:12.195Z,102088.23
2019-02-24T16:54:16.411Z,102098.14
2019-02-24T16:58:20.645Z,102097.77
2019-02-24T17:02:24.859Z,102092.45
2019-02-24T17:06:29.084Z,102101.27
2019-02-24T17:10:33.261Z,102110.18
2019-02-24T17:14:37.755Z,102112.20
2019-02-24T17:18:41.939Z,102113.70
2019-02-24T17:22:46.352Z,102115.90
2019-02-24T17:26:50.564Z,102100.84
2019-02-24T17:30:54.790Z,102094.95
2019-02-24T17:34:59.046Z,102098.66
2019-02-24T17:39:03.452Z,102103.25
2019-02-24T17:43:08.445Z,102109.50
2019-02-24T17:47:12.623Z,102114.41
2019-02-24T17:51:21.251Z,102113.30
2019-02-24T17:55:22.896Z,102108.98
2019-02-24T17:59:27.073Z,102099.96
2019-02-24T18:03:39.176Z,102102.27
2019-02-24T18:07:37.256Z,102098.86
2019-02-24T18:11:41.560Z,102098.56
2019-02-24T18:15:45.822Z,102083.70
2019-02-24T18:19:50.040Z,102095.95
2019-02-24T18:23:54.304Z,102109.09
2019-02-24T18:27:58.492Z,102093.54
2019-02-24T18:32:02.779Z,102094.23
2019-02-24T18:36:07.051Z,102098.77
2019-02-24T18:40:12.465Z,102087.30
2019-02-24T18:44:16.901Z,102090.13
2019-02-24T18:48:21.290Z,102087.83
2019-02-24T18:52:25.707Z,102074.69
2019-02-24T18:56:30.154Z,102079.80
2019-02-24T19:00:34.990Z,102076.67
2019-02-24T19:04:39.276Z,102075.89
2019-02-24T19:08:43.581Z,102064.73
2019-02-24T19:12:50.212Z,102073.97
2019-02-24T19:16:54.568Z,102074.17
2019-02-24T19:20:58.940Z,102079.48
2019-02-24T19:25:03.165Z,102070.05
2019-02-24T19:29:07.380Z,102062.52
2019-02-24T19:33:11.878Z,102058.30
2019-02-24T19:37:16.094Z,102058.30
2019-02-24T19:41:20.554Z,102068.31
2019-02-24T19:45:24.779Z,102064.50
2019-02-24T19:49:29.029Z,102058.77
2019-02-24T19:53:33.345Z,102064.81
2019-02-24T19:57:37.586Z,102054.38
2019-02-24T20:01:42.113Z,102047.03
2019-02-24T20:05:46.356Z,102046.75
2019-02-24T20:09:50.614Z,102050.45
2019-02-24T20:13:54.842Z,102041.11
2019-02-24T20:17:59.080Z,102036.36
2019-02-24T20:22:03.263Z,102033.06
2019-02-24T20:26:07.477Z,102040.17
2019-02-24T20:30:14.810Z,102042.97
2019-02-24T20:34:25.329Z,102043.97
2019-02-24T20:38:25.052Z,102057.63
2019-02-24T20:42:29.294Z,102049.06
2019-02-24T20:46:33.534Z,102048.38
2019-02-24T20:50:37.780Z,102051.05
2019-02-24T20:54:42.024Z,102055.80
2019-02-24T20:58:46.349Z,102055.28
2019-02-24T21:02:50.590Z,102049.06
2019-02-24T21:06:55.034Z,102038.41
2019-02-24T21:10:59.300Z,102037.41
2019-02-24T21:15:03.642Z,102029.16
2019-02-24T21:19:07.828Z,102027.44
2019-02-24T21:23:12.061Z,102010.97
2019-02-24T21:27:16.262Z,102021.93
2019-02-24T21:31:20.816Z,102028.94
2019-02-24T21:35:25.055Z,102027.63
2019-02-24T21:39:29.291Z,102019.00
2019-02-24T21:43:33.503Z,102031.23
2019-02-24T21:47:37.755Z,102024.54
2019-02-24T21:51:42.033Z,102024.23
2019-02-24T21:55:46.256Z,102024.70
2019-02-24T21:59:50.482Z,102014.77
2019-02-24T22:03:54.701Z,102018.88
2019-02-24T22:07:59.331Z,102025.09
2019-02-24T22:12:03.533Z,102024.77
2019-02-24T22:16:07.742Z,102024.17
2019-02-24T22:20:11.931Z,102028.66
2019-02-24T22:24:16.157Z,102017.48
2019-02-24T22:28:20.466Z,102016.37
2019-02-24T22:32:24.683Z,102008.16
2019-02-24T22:36:28.893Z,102004.80
2019-02-24T22:40:33.146Z,101996.33
2019-02-24T22:44:37.425Z,101999.97
2019-02-24T22:48:41.701Z,102003.15
2019-02-24T22:52:46.078Z,102011.66
2019-02-24T22:56:50.284Z,102017.16
2019-02-24T23:01:10.090Z,102012.03
2019-02-24T23:05:14.419Z,102014.32
2019-02-24T23:09:20.902Z,102013.56
2019-02-24T23:13:25.075Z,102012.03
2019-02-24T23:17:29.298Z,101998.07
2019-02-24T23:21:33.872Z,102011.20
2019-02-24T23:25:38.136Z,102017.82
2019-02-24T23:29:42.355Z,102012.92
2019-02-24T23:33:46.587Z,102006.38
2019-02-24T23:37:50.770Z,101996.34
2019-02-24T23:41:54.991Z,102003.86
2019-02-24T23:45:59.210Z,101994.58
2019-02-24T23:50:03.421Z,101990.84
2019-02-24T23:54:07.930Z,101983.48
2019-02-24T23:58:12.594Z,101981.56
